createdAt,value
2023-08-24T00:00:46.415Z,97.69
2023-08-24T00:01:46.404Z,97.69
2023-08-24T00:02:46.411Z,97.99
2023-08-24T00:03:46.452Z,97.89
2023-08-24T00:04:46.384Z,98.09
2023-08-24T00:05:46.370Z,96.88
2023-08-24T00:06:46.369Z,96.88
2023-08-24T00:07:46.361Z,97.08
2023-08-24T00:08:46.386Z,96.67
2023-08-24T00:09:46.343Z,96.31
2023-08-24T00:10:46.341Z,96.22
2023-08-24T00:11:46.334Z,96.72
2023-08-24T00:12:46.352Z,96.01
2023-08-24T00:13:46.343Z,96.01
2023-08-24T00:14:46.322Z,96.22
2023-08-24T00:15:46.349Z,96.72
2023-08-24T00:16:46.299Z,96.42
2023-08-24T00:17:46.386Z,96.72
2023-08-24T00:18:46.285Z,95.91
2023-08-24T00:19:46.278Z,96.72
2023-08-24T00:20:46.260Z,96.22
2023-08-24T00:21:46.252Z,96.92
2023-08-24T00:22:46.281Z,96.47
2023-08-24T00:23:46.240Z,95.86
2023-08-24T00:24:46.227Z,96.17
2023-08-24T00:25:46.221Z,96.27
2023-08-24T00:26:46.205Z,96.31
2023-08-24T00:27:46.237Z,96.72
2023-08-24T00:28:46.193Z,96.47
2023-08-24T00:29:46.188Z,96.62
2023-08-24T00:30:46.180Z,96.72
2023-08-24T00:31:46.236Z,97.23
2023-08-24T00:32:46.223Z,96.62
2023-08-24T00:33:46.167Z,97.02
2023-08-24T00:34:46.140Z,97.49
2023-08-24T00:35:46.166Z,97.18
2023-08-24T00:36:46.152Z,96.78
2023-08-24T00:37:46.124Z,97.02
2023-08-24T00:38:46.109Z,97.33
2023-08-24T00:39:46.117Z,97.53
2023-08-24T00:40:46.101Z,96.72
2023-08-24T00:41:46.121Z,97.23
2023-08-24T00:42:46.063Z,97.23
2023-08-24T00:43:47.072Z,97.33
2023-08-24T00:44:46.059Z,97.02
2023-08-24T00:45:46.134Z,96.77
2023-08-24T00:46:46.078Z,97.27
2023-08-24T00:47:46.077Z,97.62
2023-08-24T00:48:46.039Z,97.72
2023-08-24T00:49:46.033Z,97.58
2023-08-24T00:50:46.047Z,97.72
2023-08-24T00:51:46.005Z,98.23
2023-08-24T00:52:45.995Z,97.92
2023-08-24T00:53:45.996Z,98.54
2023-08-24T00:54:45.991Z,97.62
2023-08-24T00:55:46.010Z,97.52
2023-08-24T00:56:45.976Z,97.88
2023-08-24T00:57:45.978Z,98.03
2023-08-24T00:58:45.954Z,97.98
2023-08-24T00:59:45.975Z,97.98
2023-08-24T01:00:45.981Z,98.08
2023-08-24T01:01:45.926Z,97.98
2023-08-24T01:02:45.974Z,98.08
2023-08-24T01:03:45.921Z,98.69
2023-08-24T01:04:45.941Z,99.10
2023-08-24T01:05:45.906Z,99.19
2023-08-24T01:06:45.921Z,98.99
2023-08-24T01:07:45.887Z,98.39
2023-08-24T01:08:45.875Z,98.79
2023-08-24T01:09:45.879Z,98.08
2023-08-24T01:10:46.869Z,98.14
2023-08-24T01:11:45.839Z,98.18
2023-08-24T01:12:46.839Z,98.14
2023-08-24T01:13:45.865Z,98.08
2023-08-24T01:14:45.847Z,97.98
2023-08-24T01:15:45.814Z,98.24
2023-08-24T01:16:45.847Z,97.98
2023-08-24T01:17:45.886Z,98.03
2023-08-24T01:18:45.813Z,98.59
2023-08-24T01:19:45.829Z,98.28
2023-08-24T01:20:45.804Z,98.08
2023-08-24T01:21:45.774Z,98.28
2023-08-24T01:22:45.755Z,98.08
2023-08-24T01:23:46.799Z,98.08
2023-08-24T01:24:45.754Z,97.47
2023-08-24T01:25:45.737Z,96.97
2023-08-24T01:26:45.733Z,97.38
2023-08-24T01:27:45.752Z,97.52
2023-08-24T01:28:45.740Z,97.32
2023-08-24T01:29:45.705Z,97.22
2023-08-24T01:30:46.749Z,97.52
2023-08-24T01:31:45.705Z,97.52
2023-08-24T01:32:45.738Z,97.11
2023-08-24T01:33:45.690Z,97.22
2023-08-24T01:34:45.670Z,97.32
2023-08-24T01:35:45.661Z,97.22
2023-08-24T01:36:45.650Z,97.62
2023-08-24T01:37:45.681Z,97.22
2023-08-24T01:38:45.644Z,97.67
2023-08-24T01:39:45.638Z,97.97
2023-08-24T01:40:45.635Z,98.38
2023-08-24T01:41:45.653Z,98.18
2023-08-24T01:42:45.659Z,98.18
2023-08-24T01:43:45.605Z,97.62
2023-08-24T01:44:45.591Z,97.97
2023-08-24T01:45:45.586Z,97.92
2023-08-24T01:46:45.636Z,98.28
2023-08-24T01:47:45.620Z,97.92
2023-08-24T01:48:45.663Z,97.92
2023-08-24T01:49:45.568Z,98.03
2023-08-24T01:50:45.556Z,98.13
2023-08-24T01:51:45.572Z,98.33
2023-08-24T01:52:45.548Z,98.23
2023-08-24T01:53:45.532Z,98.43
2023-08-24T01:54:45.515Z,98.43
2023-08-24T01:55:45.547Z,98.03
2023-08-24T01:56:45.556Z,98.13
2023-08-24T01:57:45.516Z,98.13
2023-08-24T01:58:45.493Z,98.33
2023-08-24T01:59:45.505Z,98.23
2023-08-24T02:00:45.522Z,98.23
2023-08-24T02:01:45.522Z,98.13
2023-08-24T02:02:45.543Z,98.13
2023-08-24T02:03:45.556Z,98.23
2023-08-24T02:04:45.462Z,98.33
2023-08-24T02:05:45.468Z,98.68
2023-08-24T02:06:45.446Z,98.63
2023-08-24T02:07:45.497Z,98.48
2023-08-24T02:08:45.449Z,97.83
2023-08-24T02:09:45.407Z,98.23
2023-08-24T02:10:45.428Z,98.33
2023-08-24T02:11:45.392Z,98.23
2023-08-24T02:12:45.382Z,97.92
2023-08-24T02:13:45.383Z,98.03
2023-08-24T02:14:45.391Z,98.13
2023-08-24T02:15:45.389Z,98.07
2023-08-24T02:16:45.375Z,97.92
2023-08-24T02:17:45.369Z,98.18
2023-08-24T02:18:45.345Z,98.07
2023-08-24T02:19:45.366Z,98.28
2023-08-24T02:20:45.332Z,98.38
2023-08-24T02:21:45.324Z,98.38
2023-08-24T02:22:45.314Z,98.18
2023-08-24T02:23:45.308Z,98.48
2023-08-24T02:24:45.322Z,98.68
2023-08-24T02:25:45.286Z,98.18
2023-08-24T02:26:45.276Z,98.28
2023-08-24T02:27:45.269Z,98.28
2023-08-24T02:28:45.282Z,97.97
2023-08-24T02:29:46.285Z,98.38
2023-08-24T02:30:45.253Z,98.28
2023-08-24T02:31:45.312Z,98.38
2023-08-24T02:32:45.261Z,98.28
2023-08-24T02:33:45.252Z,98.28
2023-08-24T02:34:45.251Z,97.87
2023-08-24T02:35:45.215Z,98.68
2023-08-24T02:36:45.197Z,98.43
2023-08-24T02:37:45.194Z,98.22
2023-08-24T02:38:45.218Z,98.43
2023-08-24T02:39:45.177Z,98.32
2023-08-24T02:40:45.208Z,98.52
2023-08-24T02:41:45.163Z,98.52
2023-08-24T02:42:45.156Z,98.68
2023-08-24T02:43:47.500Z,98.38
2023-08-24T02:44:45.134Z,98.07
2023-08-24T02:45:45.150Z,98.12
2023-08-24T02:46:45.115Z,98.43
2023-08-24T02:47:45.178Z,98.22
2023-08-24T02:48:45.146Z,98.52
2023-08-24T02:49:45.085Z,98.43
2023-08-24T02:50:45.082Z,98.52
2023-08-24T02:51:45.072Z,98.73
2023-08-24T02:52:45.088Z,99.54
2023-08-24T02:53:45.054Z,98.73
2023-08-24T02:54:45.048Z,98.73
2023-08-24T02:55:45.025Z,99.24
2023-08-24T02:56:46.059Z,98.73
2023-08-24T02:57:45.049Z,98.63
2023-08-24T02:58:45.016Z,99.24
2023-08-24T02:59:45.006Z,98.73
2023-08-24T03:00:45.001Z,98.52
2023-08-24T03:01:45.065Z,98.02
2023-08-24T03:02:45.056Z,98.43
2023-08-24T03:03:45.022Z,98.43
2023-08-24T03:04:44.963Z,98.63
2023-08-24T03:05:44.966Z,98.73
2023-08-24T03:06:44.991Z,99.04
2023-08-24T03:07:44.939Z,99.64
2023-08-24T03:08:44.935Z,99.13
2023-08-24T03:09:44.932Z,99.24
2023-08-24T03:10:44.921Z,99.33
2023-08-24T03:11:44.941Z,99.44
2023-08-24T03:12:44.905Z,99.44
2023-08-24T03:13:44.902Z,99.24
2023-08-24T03:14:44.902Z,99.74
2023-08-24T03:15:44.956Z,99.95
2023-08-24T03:16:44.917Z,99.89
2023-08-24T03:17:44.906Z,99.13
2023-08-24T03:18:44.897Z,99.04
2023-08-24T03:19:44.845Z,99.58
2023-08-24T03:20:44.869Z,99.38
2023-08-24T03:21:44.832Z,99.38
2023-08-24T03:22:44.827Z,99.58
2023-08-24T03:23:44.827Z,99.28
2023-08-24T03:24:44.814Z,99.33
2023-08-24T03:25:44.841Z,99.38
2023-08-24T03:26:44.800Z,98.92
2023-08-24T03:27:44.797Z,99.89
2023-08-24T03:28:44.787Z,99.69
2023-08-24T03:29:44.780Z,99.18
2023-08-24T03:30:44.796Z,98.88
2023-08-24T03:31:44.804Z,99.79
2023-08-24T03:32:44.813Z,99.58
2023-08-24T03:33:44.753Z,99.79
2023-08-24T03:34:44.772Z,99.18
2023-08-24T03:35:44.771Z,99.28
2023-08-24T03:36:44.716Z,99.18
2023-08-24T03:37:44.729Z,99.84
2023-08-24T03:38:44.700Z,99.79
2023-08-24T03:39:44.721Z,99.69
2023-08-24T03:40:44.693Z,99.28
2023-08-24T03:41:44.678Z,99.18
2023-08-24T03:42:44.672Z,98.82
2023-08-24T03:43:44.663Z,99.43
2023-08-24T03:44:44.684Z,99.84
2023-08-24T03:45:44.765Z,99.63
2023-08-24T03:46:44.771Z,99.69
2023-08-24T03:47:44.647Z,99.58
2023-08-24T03:48:44.656Z,99.49
2023-08-24T03:49:44.644Z,99.28
2023-08-24T03:50:44.618Z,99.38
2023-08-24T03:51:44.645Z,98.57
2023-08-24T03:52:44.615Z,99.43
2023-08-24T03:53:44.627Z,99.22
2023-08-24T03:54:44.575Z,99.33
2023-08-24T03:55:44.581Z,99.43
2023-08-24T03:56:44.566Z,98.82
2023-08-24T03:57:44.668Z,99.02
2023-08-24T03:58:44.578Z,99.22
2023-08-24T03:59:44.541Z,99.58
2023-08-24T04:00:44.534Z,99.74
2023-08-24T04:01:44.524Z,99.38
2023-08-24T04:02:44.547Z,99.58
2023-08-24T04:03:45.567Z,99.22
2023-08-24T04:04:44.525Z,99.22
2023-08-24T04:05:44.503Z,99.22
2023-08-24T04:06:44.484Z,99.49
2023-08-24T04:07:44.505Z,99.28
2023-08-24T04:08:44.478Z,98.97
2023-08-24T04:09:44.462Z,99.99
2023-08-24T04:10:44.450Z,99.49
2023-08-24T04:11:44.444Z,99.18
2023-08-24T04:12:44.464Z,99.38
2023-08-24T04:13:44.423Z,99.58
2023-08-24T04:14:44.421Z,99.69
2023-08-24T04:15:44.448Z,99.69
2023-08-24T04:16:44.412Z,99.79
2023-08-24T04:17:44.854Z,99.79
2023-08-24T04:18:45.390Z,98.97
2023-08-24T04:19:44.387Z,99.38
2023-08-24T04:20:44.382Z,99.44
2023-08-24T04:21:44.377Z,99.38
2023-08-24T04:22:44.389Z,99.33
2023-08-24T04:23:44.383Z,99.38
2023-08-24T04:24:44.359Z,99.38
2023-08-24T04:25:44.338Z,99.28
2023-08-24T04:26:44.339Z,99.33
2023-08-24T04:27:44.353Z,99.44
2023-08-24T04:28:44.329Z,99.33
2023-08-24T04:29:44.296Z,99.54
2023-08-24T04:30:45.343Z,98.57
2023-08-24T04:31:44.327Z,98.83
2023-08-24T04:32:44.350Z,98.93
2023-08-24T04:33:44.276Z,98.52
2023-08-24T04:34:44.284Z,98.27
2023-08-24T04:35:44.266Z,98.37
2023-08-24T04:36:44.290Z,98.88
2023-08-24T04:37:44.257Z,98.57
2023-08-24T04:38:44.244Z,99.38
2023-08-24T04:39:44.241Z,99.38
2023-08-24T04:40:44.226Z,98.88
2023-08-24T04:41:44.241Z,98.47
2023-08-24T04:42:44.214Z,98.57
2023-08-24T04:43:44.198Z,98.77
2023-08-24T04:44:44.205Z,98.97
2023-08-24T04:45:44.185Z,98.47
2023-08-24T04:46:44.233Z,98.16
2023-08-24T04:47:44.203Z,98.57
2023-08-24T04:48:44.162Z,98.27
2023-08-24T04:49:44.159Z,98.07
2023-08-24T04:50:46.519Z,98.16
2023-08-24T04:51:44.169Z,98.16
2023-08-24T04:52:44.141Z,98.57
2023-08-24T04:53:44.126Z,98.52
2023-08-24T04:54:44.112Z,97.71
2023-08-24T04:55:44.130Z,96.86
2023-08-24T04:56:44.088Z,97.02
2023-08-24T04:57:44.581Z,95.55
2023-08-24T04:58:44.087Z,95.71
2023-08-24T04:59:44.071Z,94.85
2023-08-24T05:00:44.097Z,93.90
2023-08-24T05:01:44.060Z,93.24
2023-08-24T05:02:44.103Z,92.40
2023-08-24T05:03:44.038Z,91.58
2023-08-24T05:04:44.063Z,91.03
2023-08-24T05:05:44.050Z,91.03
2023-08-24T05:06:44.020Z,89.34
2023-08-24T05:07:44.013Z,88.63
2023-08-24T05:08:44.012Z,88.02
2023-08-24T05:09:44.022Z,88.59
2023-08-24T05:10:44.004Z,87.78
2023-08-24T05:11:44.011Z,88.23
2023-08-24T05:12:43.978Z,88.67
2023-08-24T05:13:43.956Z,88.57
2023-08-24T05:14:43.981Z,89.48
2023-08-24T05:15:43.944Z,88.77
2023-08-24T05:16:43.996Z,88.67
2023-08-24T05:17:43.989Z,88.63
2023-08-24T05:18:44.043Z,88.32
2023-08-24T05:19:44.001Z,88.57
2023-08-24T05:20:43.908Z,89.32
2023-08-24T05:21:43.905Z,90.23
2023-08-24T05:22:43.887Z,91.18
2023-08-24T05:23:43.909Z,91.58
2023-08-24T05:24:43.887Z,92.24
2023-08-24T05:25:45.911Z,92.60
2023-08-24T05:26:44.854Z,92.24
2023-08-24T05:27:43.865Z,92.94
2023-08-24T05:28:43.878Z,93.05
2023-08-24T05:29:43.845Z,90.79
2023-08-24T05:30:43.858Z,90.50
2023-08-24T05:31:43.813Z,88.59
2023-08-24T05:32:43.843Z,88.73
2023-08-24T05:33:43.814Z,89.68
2023-08-24T05:34:44.793Z,89.88
2023-08-24T05:35:43.791Z,91.30
2023-08-24T05:36:43.781Z,90.83
2023-08-24T05:37:43.845Z,90.94
2023-08-24T05:38:59.397Z,91.34
2023-08-24T05:39:45.780Z,91.54
2023-08-24T05:40:43.749Z,91.03
2023-08-24T05:41:43.740Z,91.03
2023-08-24T05:42:43.763Z,91.03
2023-08-24T05:43:43.726Z,91.14
2023-08-24T05:44:43.716Z,90.83
2023-08-24T05:45:43.711Z,91.03
2023-08-24T05:46:43.728Z,90.94
2023-08-24T05:47:43.855Z,91.44
2023-08-24T05:48:43.685Z,91.64
2023-08-24T05:49:43.675Z,91.74
2023-08-24T05:50:43.669Z,91.30
2023-08-24T05:51:43.681Z,90.95
2023-08-24T05:52:43.648Z,89.90
2023-08-24T05:53:43.641Z,89.29
2023-08-24T05:54:43.642Z,89.15
2023-08-24T05:55:43.635Z,89.23
2023-08-24T05:56:43.641Z,89.64
2023-08-24T05:57:43.617Z,89.34
2023-08-24T05:58:43.604Z,89.43
2023-08-24T05:59:43.607Z,90.14
2023-08-24T06:00:43.624Z,90.69
2023-08-24T06:01:43.692Z,91.15
2023-08-24T06:02:43.609Z,90.79
2023-08-24T06:03:43.623Z,90.99
2023-08-24T06:04:43.561Z,91.39
2023-08-24T06:05:43.578Z,91.03
2023-08-24T06:06:43.552Z,91.09
2023-08-24T06:07:43.527Z,91.64
2023-08-24T06:08:43.552Z,91.74
2023-08-24T06:09:43.517Z,91.74
2023-08-24T06:10:43.523Z,92.65
2023-08-24T06:11:43.507Z,92.25
2023-08-24T06:12:43.494Z,92.85
2023-08-24T06:13:43.498Z,92.76
2023-08-24T06:14:43.483Z,93.36
2023-08-24T06:15:43.504Z,93.36
2023-08-24T06:16:43.462Z,92.91
2023-08-24T06:17:43.480Z,92.85
2023-08-24T06:18:43.450Z,92.81
2023-08-24T06:19:43.467Z,92.71
2023-08-24T06:20:43.459Z,92.91
2023-08-24T06:21:43.444Z,93.12
2023-08-24T06:22:43.423Z,93.01
2023-08-24T06:23:43.405Z,93.01
2023-08-24T06:24:43.424Z,92.36
2023-08-24T06:25:43.419Z,92.46
2023-08-24T06:26:43.390Z,92.57
2023-08-24T06:27:43.380Z,92.06
2023-08-24T06:28:43.373Z,92.32
2023-08-24T06:29:43.393Z,92.12
2023-08-24T06:30:43.350Z,92.32
2023-08-24T06:31:43.392Z,91.51
2023-08-24T06:32:43.416Z,91.71
2023-08-24T06:33:43.336Z,91.51
2023-08-24T06:34:44.974Z,90.82
2023-08-24T06:35:43.326Z,90.78
2023-08-24T06:36:43.314Z,91.44
2023-08-24T06:37:43.299Z,90.39
2023-08-24T06:38:43.320Z,88.03
2023-08-24T06:39:43.315Z,87.53
2023-08-24T06:40:43.283Z,85.82
2023-08-24T06:41:43.282Z,86.12
2023-08-24T06:42:43.262Z,85.78
2023-08-24T06:43:43.282Z,84.67
2023-08-24T06:44:43.244Z,85.72
2023-08-24T06:45:43.242Z,85.82
2023-08-24T06:46:43.228Z,84.67
2023-08-24T06:47:43.250Z,85.64
2023-08-24T06:48:43.250Z,84.53
2023-08-24T06:49:43.235Z,84.43
2023-08-24T06:50:43.200Z,84.57
2023-08-24T06:51:43.182Z,84.88
2023-08-24T06:52:43.185Z,85.38
2023-08-24T06:53:43.201Z,85.78
2023-08-24T06:54:43.177Z,85.78
2023-08-24T06:55:43.158Z,84.97
2023-08-24T06:56:43.148Z,84.57
2023-08-24T06:57:43.141Z,84.47
2023-08-24T06:58:43.164Z,83.76
2023-08-24T06:59:43.127Z,84.77
2023-08-24T07:00:43.118Z,85.08
2023-08-24T07:01:43.130Z,84.83
2023-08-24T07:02:43.159Z,85.38
2023-08-24T07:03:43.173Z,85.64
2023-08-24T07:04:43.103Z,85.74
2023-08-24T07:05:43.084Z,85.53
2023-08-24T07:06:43.077Z,85.58
2023-08-24T07:07:43.100Z,85.17
2023-08-24T07:08:43.078Z,86.08
2023-08-24T07:09:43.057Z,85.38
2023-08-24T07:10:43.042Z,85.38
2023-08-24T07:11:43.041Z,85.94
2023-08-24T07:12:43.084Z,86.24
2023-08-24T07:13:43.026Z,85.98
2023-08-24T07:14:43.030Z,85.94
2023-08-24T07:15:43.036Z,86.88
2023-08-24T07:16:43.041Z,87.29
2023-08-24T07:17:43.034Z,86.99
2023-08-24T07:18:42.989Z,87.59
2023-08-24T07:19:42.989Z,87.39
2023-08-24T07:20:42.969Z,86.79
2023-08-24T07:21:42.998Z,87.29
2023-08-24T07:22:42.958Z,87.53
2023-08-24T07:23:43.944Z,87.63
2023-08-24T07:24:46.020Z,87.33
2023-08-24T07:25:43.930Z,87.47
2023-08-24T07:26:42.962Z,88.48
2023-08-24T07:27:42.919Z,88.23
2023-08-24T07:28:42.906Z,88.38
2023-08-24T07:29:42.891Z,88.28
2023-08-24T07:30:43.928Z,88.18
2023-08-24T07:31:43.003Z,87.92
2023-08-24T07:32:42.927Z,87.98
2023-08-24T07:33:42.880Z,87.98
2023-08-24T07:34:42.878Z,88.18
2023-08-24T07:35:42.881Z,88.07
2023-08-24T07:36:42.880Z,88.18
2023-08-24T07:37:42.844Z,87.98
2023-08-24T07:38:42.842Z,88.07
2023-08-24T07:39:42.833Z,88.28
2023-08-24T07:40:42.847Z,87.98
2023-08-24T07:41:42.818Z,88.38
2023-08-24T07:42:42.806Z,88.22
2023-08-24T07:43:42.864Z,88.38
2023-08-24T07:44:42.783Z,88.88
2023-08-24T07:45:42.849Z,88.98
2023-08-24T07:46:42.782Z,89.08
2023-08-24T07:47:42.880Z,88.58
2023-08-24T07:48:42.759Z,88.98
2023-08-24T07:49:42.750Z,89.32
2023-08-24T07:50:42.789Z,90.29
2023-08-24T07:51:42.779Z,90.59
2023-08-24T07:52:42.725Z,90.79
2023-08-24T07:53:42.719Z,90.99
2023-08-24T07:54:42.739Z,90.99
2023-08-24T07:55:42.739Z,90.39
2023-08-24T07:56:42.697Z,90.89
2023-08-24T07:57:42.690Z,90.49
2023-08-24T07:58:42.676Z,90.59
2023-08-24T07:59:43.701Z,90.69
2023-08-24T08:00:42.669Z,91.04
2023-08-24T08:01:42.697Z,91.30
2023-08-24T08:02:42.726Z,91.04
2023-08-24T08:03:42.688Z,90.44
2023-08-24T08:04:42.685Z,90.59
2023-08-24T08:05:42.635Z,90.49
2023-08-24T08:06:42.621Z,89.39
2023-08-24T08:07:42.615Z,89.34
2023-08-24T08:08:42.633Z,89.84
2023-08-24T08:09:42.620Z,88.84
2023-08-24T08:10:42.584Z,88.94
2023-08-24T08:11:42.592Z,88.74
2023-08-24T08:12:42.580Z,89.60
2023-08-24T08:13:42.594Z,88.95
2023-08-24T08:14:42.557Z,90.11
2023-08-24T08:15:42.581Z,87.85
2023-08-24T08:16:42.550Z,87.95
2023-08-24T08:17:42.570Z,88.11
2023-08-24T08:18:42.557Z,87.60
2023-08-24T08:19:42.550Z,87.91
2023-08-24T08:20:42.552Z,87.51
2023-08-24T08:21:42.506Z,86.20
2023-08-24T08:22:42.674Z,85.60
2023-08-24T08:23:42.545Z,85.41
2023-08-24T08:24:42.564Z,85.52
2023-08-24T08:25:42.495Z,84.88
2023-08-24T08:26:42.513Z,84.17
2023-08-24T08:27:42.553Z,83.63
2023-08-24T08:28:42.545Z,83.43
2023-08-24T08:29:42.444Z,82.63
2023-08-24T08:30:42.582Z,82.82
2023-08-24T08:31:42.578Z,82.43
2023-08-24T08:32:42.564Z,82.73
2023-08-24T08:33:42.427Z,83.43
2023-08-24T08:34:42.413Z,82.59
2023-08-24T08:35:42.423Z,84.25
2023-08-24T08:36:42.415Z,83.15
2023-08-24T08:37:42.409Z,82.51
2023-08-24T08:38:42.372Z,81.11
2023-08-24T08:39:42.386Z,81.11
2023-08-24T08:40:42.370Z,82.55
2023-08-24T08:41:42.386Z,82.81
2023-08-24T08:42:42.374Z,82.97
2023-08-24T08:43:42.344Z,81.67
2023-08-24T08:44:42.381Z,81.51
2023-08-24T08:45:42.321Z,83.95
2023-08-24T08:46:42.412Z,82.89
2023-08-24T08:47:42.566Z,83.01
2023-08-24T08:48:42.327Z,81.97
2023-08-24T08:49:42.289Z,80.59
2023-08-24T08:50:42.293Z,80.95
2023-08-24T08:51:42.308Z,79.91
2023-08-24T08:52:42.289Z,78.68
2023-08-24T08:53:42.275Z,77.84
2023-08-24T08:54:42.260Z,77.38
2023-08-24T08:55:42.292Z,78.68
2023-08-24T08:56:42.262Z,78.04
2023-08-24T08:57:42.236Z,77.81
2023-08-24T08:58:42.223Z,75.11
2023-08-24T08:59:43.217Z,75.01
2023-08-24T09:00:42.271Z,75.81
2023-08-24T09:01:42.227Z,76.81
2023-08-24T09:02:42.244Z,76.71
2023-08-24T09:03:42.216Z,76.67
2023-08-24T09:04:42.208Z,76.57
2023-08-24T09:05:43.206Z,77.27
2023-08-24T09:06:42.163Z,77.11
2023-08-24T09:07:42.161Z,76.11
2023-08-24T09:08:42.146Z,77.14
2023-08-24T09:09:42.156Z,78.24
2023-08-24T09:10:42.163Z,77.61
2023-08-24T09:11:42.148Z,78.54
2023-08-24T09:12:42.121Z,78.74
2023-08-24T09:13:42.113Z,78.74
2023-08-24T09:14:42.107Z,77.61
2023-08-24T09:15:42.141Z,77.07
2023-08-24T09:16:42.132Z,76.27
2023-08-24T09:17:42.108Z,75.74
2023-08-24T09:18:42.077Z,76.14
2023-08-24T09:19:42.096Z,75.80
2023-08-24T09:20:42.088Z,74.60
2023-08-24T09:21:42.058Z,74.77
2023-08-24T09:22:42.043Z,76.00
2023-08-24T09:23:42.049Z,74.71
2023-08-24T09:24:42.054Z,74.94
2023-08-24T09:25:42.030Z,75.74
2023-08-24T09:26:42.018Z,74.44
2023-08-24T09:27:42.010Z,74.74
2023-08-24T09:28:42.001Z,74.94
2023-08-24T09:29:42.012Z,74.51
2023-08-24T09:30:42.016Z,73.01
2023-08-24T09:31:41.963Z,73.01
2023-08-24T09:32:42.008Z,74.30
2023-08-24T09:33:41.994Z,74.41
2023-08-24T09:34:41.979Z,74.27
2023-08-24T09:35:41.939Z,74.24
2023-08-24T09:36:41.942Z,72.25
2023-08-24T09:37:41.918Z,72.71
2023-08-24T09:38:41.939Z,71.12
2023-08-24T09:39:41.934Z,70.39
2023-08-24T09:40:41.903Z,70.39
2023-08-24T09:41:41.911Z,71.34
2023-08-24T09:42:41.886Z,70.52
2023-08-24T09:43:41.914Z,69.72
2023-08-24T09:44:41.868Z,70.32
2023-08-24T09:45:41.871Z,69.69
2023-08-24T09:46:41.876Z,70.18
2023-08-24T09:47:41.862Z,69.59
2023-08-24T09:48:41.873Z,70.18
2023-08-24T09:49:41.835Z,70.29
2023-08-24T09:50:41.830Z,70.58
2023-08-24T09:51:41.845Z,70.09
2023-08-24T09:52:41.820Z,70.39
2023-08-24T09:53:41.849Z,70.92
2023-08-24T09:54:41.800Z,71.51
2023-08-24T09:55:41.793Z,71.18
2023-08-24T09:56:41.809Z,70.52
2023-08-24T09:57:41.818Z,70.98
2023-08-24T09:58:42.791Z,70.88
2023-08-24T09:59:41.758Z,70.65
2023-08-24T10:00:41.750Z,70.88
2023-08-24T10:01:42.681Z,70.78
2023-08-24T10:02:41.836Z,70.88
2023-08-24T10:03:41.828Z,70.75
2023-08-24T10:04:41.729Z,69.69
2023-08-24T10:06:42.726Z,71.25
2023-08-24T10:07:41.717Z,72.14
2023-08-24T10:08:41.686Z,71.31
2023-08-24T10:09:41.679Z,71.55
2023-08-24T10:10:41.672Z,72.08
2023-08-24T10:11:41.692Z,74.37
2023-08-24T10:12:41.680Z,73.80
2023-08-24T10:13:41.655Z,72.17
2023-08-24T10:14:41.648Z,71.04
2023-08-24T10:15:41.681Z,69.65
2023-08-24T10:16:41.696Z,70.06
2023-08-24T10:17:41.647Z,70.25
2023-08-24T10:18:41.618Z,71.25
2023-08-24T10:19:41.609Z,70.32
2023-08-24T10:20:41.599Z,67.61
2023-08-24T10:21:41.631Z,68.76
2023-08-24T10:22:41.613Z,67.71
2023-08-24T10:23:41.578Z,69.76
2023-08-24T10:24:41.600Z,68.04
2023-08-24T10:25:41.586Z,68.20
2023-08-24T10:26:41.586Z,65.53
2023-08-24T10:27:41.553Z,65.99
2023-08-24T10:28:41.538Z,65.59
2023-08-24T10:29:41.544Z,65.50
2023-08-24T10:30:41.591Z,65.40
2023-08-24T10:31:41.581Z,66.69
2023-08-24T10:32:41.642Z,64.51
2023-08-24T10:33:41.529Z,64.61
2023-08-24T10:34:41.492Z,65.50
2023-08-24T10:35:41.517Z,64.31
2023-08-24T10:36:41.575Z,66.16
2023-08-24T10:37:41.569Z,65.27
2023-08-24T10:38:41.463Z,64.28
2023-08-24T10:39:41.532Z,64.08
2023-08-24T10:40:41.478Z,64.25
2023-08-24T10:41:41.441Z,63.59
2023-08-24T10:42:41.441Z,63.85
2023-08-24T10:43:41.426Z,62.30
2023-08-24T10:44:41.450Z,62.66
2023-08-24T10:45:41.502Z,62.63
2023-08-24T10:46:41.415Z,62.12
2023-08-24T10:47:41.444Z,61.62
2023-08-24T10:48:41.386Z,61.72
2023-08-24T10:49:41.410Z,61.72
2023-08-24T10:50:41.393Z,61.62
2023-08-24T10:51:41.369Z,61.62
2023-08-24T10:52:41.374Z,61.29
2023-08-24T10:53:41.375Z,60.41
2023-08-24T10:54:41.372Z,60.18
2023-08-24T10:55:41.348Z,59.66
2023-08-24T10:56:41.441Z,59.16
2023-08-24T10:57:42.198Z,59.19
2023-08-24T10:58:41.350Z,61.85
2023-08-24T10:59:51.005Z,58.01
2023-08-24T11:00:43.301Z,59.39
2023-08-24T11:01:41.354Z,60.80
2023-08-24T11:02:41.362Z,59.00
2023-08-24T11:03:41.366Z,59.52
2023-08-24T11:04:41.277Z,60.97
2023-08-24T11:05:41.263Z,59.39
2023-08-24T11:06:41.266Z,59.71
2023-08-24T11:07:41.262Z,58.92
2023-08-24T11:08:41.270Z,59.52
2023-08-24T11:09:41.234Z,59.81
2023-08-24T11:10:41.275Z,59.39
2023-08-24T11:11:41.222Z,58.60
2023-08-24T11:12:41.217Z,59.88
2023-08-24T11:14:14.783Z,57.93
2023-08-24T11:14:41.188Z,59.09
2023-08-24T11:15:41.208Z,58.67
2023-08-24T11:16:41.193Z,58.57
2023-08-24T11:17:41.200Z,59.36
2023-08-24T11:18:41.195Z,58.11
2023-08-24T11:19:41.172Z,58.80
2023-08-24T11:20:41.249Z,58.80
2023-08-24T11:21:41.154Z,56.90
2023-08-24T11:22:41.168Z,56.82
2023-08-24T11:23:41.132Z,61.76
2023-08-24T11:24:41.157Z,57.97
2023-08-24T11:25:41.120Z,58.06
2023-08-24T11:26:41.120Z,61.19
2023-08-24T11:27:41.126Z,58.70
2023-08-24T11:28:41.092Z,58.01
2023-08-24T11:29:41.094Z,58.77
2023-08-24T11:30:41.090Z,56.96
2023-08-24T11:31:43.005Z,57.86
2023-08-24T11:32:42.115Z,57.56
2023-08-24T11:33:41.057Z,59.06
2023-08-24T11:34:41.052Z,58.77
2023-08-24T11:35:41.080Z,58.47
2023-08-24T11:36:41.054Z,59.36
2023-08-24T11:37:41.049Z,57.29
2023-08-24T11:38:41.039Z,59.09
2023-08-24T11:39:41.015Z,59.75
2023-08-24T11:40:41.006Z,58.11
2023-08-24T11:41:41.030Z,60.21
2023-08-24T11:42:40.993Z,59.42
2023-08-24T11:43:40.987Z,58.89
2023-08-24T11:44:40.971Z,60.57
2023-08-24T11:45:40.961Z,58.80
2023-08-24T11:46:41.016Z,58.18
2023-08-24T11:47:40.990Z,56.63
2023-08-24T11:48:40.940Z,58.11
2023-08-24T11:49:40.928Z,58.67
2023-08-24T11:50:40.946Z,59.01
2023-08-24T11:51:43.643Z,58.19
2023-08-24T11:52:41.920Z,58.59
2023-08-24T11:53:40.908Z,57.60
2023-08-24T11:54:40.914Z,56.69
2023-08-24T11:55:45.814Z,53.76
2023-08-24T11:56:42.873Z,54.50
2023-08-24T11:57:41.881Z,55.91
2023-08-24T11:58:40.867Z,56.70
2023-08-24T11:59:40.872Z,55.68
2023-08-24T12:00:40.946Z,55.91
2023-08-24T12:01:40.862Z,56.70
2023-08-24T12:02:40.859Z,57.09
2023-08-24T12:03:40.964Z,56.50
2023-08-24T12:04:40.825Z,56.63
2023-08-24T12:05:40.834Z,59.00
2023-08-24T12:06:40.800Z,59.29
2023-08-24T12:07:40.798Z,58.77
2023-08-24T12:08:40.798Z,59.33
2023-08-24T12:09:40.801Z,57.82
2023-08-24T12:10:40.805Z,58.12
2023-08-24T12:11:40.773Z,56.45
2023-08-24T12:12:40.849Z,56.62
2023-08-24T12:13:40.763Z,57.01
2023-08-24T12:14:41.803Z,56.02
2023-08-24T12:15:41.771Z,56.42
2023-08-24T12:16:40.745Z,56.52
2023-08-24T12:17:40.753Z,55.73
2023-08-24T12:18:40.720Z,56.22
2023-08-24T12:19:40.712Z,56.59
2023-08-24T12:20:40.728Z,56.79
2023-08-24T12:21:40.697Z,56.10
2023-08-24T12:22:40.694Z,56.52
2023-08-24T12:23:40.690Z,56.42
2023-08-24T12:24:40.706Z,56.35
2023-08-24T12:25:40.697Z,57.43
2023-08-24T12:26:40.663Z,56.57
2023-08-24T12:27:40.694Z,57.06
2023-08-24T12:28:40.654Z,57.95
2023-08-24T12:29:40.666Z,58.45
2023-08-24T12:30:40.662Z,58.34
2023-08-24T12:31:40.618Z,57.75
2023-08-24T12:32:40.639Z,57.95
2023-08-24T12:33:40.604Z,56.99
2023-08-24T12:34:40.621Z,58.37
2023-08-24T12:35:40.591Z,57.98
2023-08-24T12:36:40.710Z,57.88
2023-08-24T12:37:40.579Z,59.09
2023-08-24T12:38:40.602Z,58.70
2023-08-24T12:39:40.578Z,59.88
2023-08-24T12:40:40.542Z,60.57
2023-08-24T12:41:40.541Z,59.69
2023-08-24T12:42:40.540Z,60.87
2023-08-24T12:43:41.573Z,61.07
2023-08-24T12:44:41.545Z,58.11
2023-08-24T12:45:40.526Z,60.15
2023-08-24T12:46:40.626Z,59.36
2023-08-24T12:47:40.570Z,59.56
2023-08-24T12:48:40.516Z,58.37
2023-08-24T12:49:40.523Z,59.23
2023-08-24T12:50:40.484Z,58.42
2023-08-24T12:51:40.502Z,59.01
2023-08-24T12:52:40.457Z,58.00
2023-08-24T12:53:40.485Z,56.71